Time;durP1;ratioP1;P1;durP2;ratioP2;P2;SDS_P1;SDS_P2;PMS_P1;PMS_P2;Temp;Humidity;BMP_temperature;BMP_pressure;BME280_temperature;BME280_humidity;BME280_pressure;Samples;Min_cycle;Max_cycle;Signal;HPM_P1;HPM_P2
2022/07/05 00:00:59;;;;;;;;;;;;;;;;;;5048587;28;19909;-51
2022/07/05 00:03:25;;;;;;;;;;;;;;;;;;5062088;28;19920;-48
2022/07/05 00:05:51;;;;;;;;;;;;;;;;;;5060600;28;19946;-51
2022/07/05 00:08:17;;;;;;;;;;;;;;;;;;5049032;28;19956;-51
2022/07/05 00:10:43;;;;;;;;;;;;;;;;;;5048430;28;19913;-52
2022/07/05 00:13:09;;;;;;;;;;;;;;;;;;5048772;28;19905;-52
2022/07/05 00:15:35;;;;;;;;;;;;;;;;;;5065449;28;20015;-51
2022/07/05 00:18:01;;;;;;;;;;;;;;;;;;5068272;28;20486;-52
2022/07/05 00:20:27;;;;;;;;;;;;;;;;;;5068521;28;19995;-51
2022/07/05 00:22:53;;;;;;;;;;;;;;;;;;5068080;28;20394;-50
2022/07/05 00:25:19;;;;;;;;;;;;;;;;;;5067972;28;19908;-50
2022/07/05 00:27:46;;;;;;;;;;;;;;;;;;5067333;28;19917;-51
2022/07/05 00:30:12;;;;;;;;;;;;;;;;;;5050957;28;19913;-51
2022/07/05 00:32:38;;;;;;;;;;;;;;;;;;5047345;28;19919;-51
2022/07/05 00:35:04;;;;;;;;;;;;;;;;;;5047469;28;19912;-49
2022/07/05 00:37:30;;;;;;;;;;;;;;;;;;5048403;28;19915;-52
2022/07/05 00:39:56;;;;;;;;;;;;;;;;;;5048206;28;20008;-47
2022/07/05 00:42:22;;;;;;;;;;;;;;;;;;5048532;28;19963;-51
2022/07/05 00:44:47;;;;;;;;;;;;;;;;;;5057600;28;19912;-50
2022/07/05 00:47:13;;;;;;;;;;;;;;;;;;5069233;28;20004;-51
2022/07/05 00:49:39;;;;;;;;;;;;;;;;;;5071931;28;20007;-51
2022/07/05 00:52:05;;;;;;;;;;;;;;;;;;5072427;28;19908;-51
2022/07/05 00:54:31;;;;;;;;;;;;;;;;;;5072432;28;19908;-51
2022/07/05 00:56:57;;;;;;;;;;;;;;;;;;5072083;28;19912;-50
2022/07/05 00:59:23;;;;;;;;;;;;;;;;;;5068131;28;20011;-51
2022/07/05 01:01:49;;;;;;;;;;;;;;;;;;5051951;28;19913;-50
2022/07/05 01:04:15;;;;;;;;;;;;;;;;;;5051780;28;19920;-47
2022/07/05 01:06:41;;;;;;;;;;;;;;;;;;5051962;28;19909;-51
2022/07/05 01:09:07;;;;;;;;;;;;;;;;;;5051903;28;20043;-48
2022/07/05 01:11:33;;;;;;;;;;;;;;;;;;5051910;28;19913;-51
2022/07/05 01:14:00;;;;;;;;;;;;;;;;;;5051075;28;19912;-50
2022/07/05 01:16:26;;;;;;;;;;;;;;;;;;5052020;28;20361;-50
2022/07/05 01:18:52;;;;;;;;;;;;;;;;;;5051610;28;20008;-51
2022/07/05 01:21:19;;;;;;;;;;;;;;;;;;5052250;28;19920;-48
2022/07/05 01:23:45;;;;;;;;;;;;;;;;;;5051724;28;19916;-47
2022/07/05 01:26:11;;;;;;;;;;;;;;;;;;5052018;28;20034;-51
2022/07/05 01:28:37;;;;;;;;;;;;;;;;;;5051086;28;19920;-51
2022/07/05 01:31:03;;;;;;;;;;;;;;;;;;5052005;28;19915;-52
2022/07/05 01:33:29;;;;;;;;;;;;;;;;;;5061180;28;19923;-51
2022/07/05 01:35:55;;;;;;;;;;;;;;;;;;5069701;28;20091;-51
2022/07/05 01:38:21;;;;;;;;;;;;;;;;;;5069979;28;19913;-49
2022/07/05 01:40:51;;;;;;;;;;;;;;;;;;5071300;28;19909;-51
2022/07/05 01:43:17;;;;;;;;;;;;;;;;;;5071445;28;19944;-50
2022/07/05 01:45:43;;;;;;;;;;;;;;;;;;5071289;28;20310;-51
2022/07/05 01:48:09;;;;;;;;;;;;;;;;;;5070977;28;19986;-51
2022/07/05 01:50:35;;;;;;;;;;;;;;;;;;5071593;28;19912;-47
2022/07/05 01:53:01;;;;;;;;;;;;;;;;;;5063502;28;19920;-51
2022/07/05 01:55:27;;;;;;;;;;;;;;;;;;5062392;28;19995;-51
2022/07/05 01:57:52;;;;;;;;;;;;;;;;;;5071284;28;19913;-52
2022/07/05 02:00:18;;;;;;;;;;;;;;;;;;5063162;28;19919;-50
2022/07/05 02:02:44;;;;;;;;;;;;;;;;;;5050490;28;19913;-50
2022/07/05 02:05:10;;;;;;;;;;;;;;;;;;5051237;28;19960;-47
2022/07/05 02:07:36;;;;;;;;;;;;;;;;;;5051127;28;20030;-47
2022/07/05 02:10:02;;;;;;;;;;;;;;;;;;5051083;28;19909;-51
2022/07/05 02:12:28;;;;;;;;;;;;;;;;;;5050781;28;20028;-51
2022/07/05 02:14:54;;;;;;;;;;;;;;;;;;5056726;28;19923;-50
2022/07/05 02:17:20;;;;;;;;;;;;;;;;;;5070160;28;19982;-50
2022/07/05 02:19:46;;;;;;;;;;;;;;;;;;5070844;28;19913;-49
2022/07/05 02:22:12;;;;;;;;;;;;;;;;;;5070743;28;20007;-47
2022/07/05 02:24:38;;;;;;;;;;;;;;;;;;5070483;28;19912;-47
2022/07/05 02:27:04;;;;;;;;;;;;;;;;;;5070729;28;19919;-50
2022/07/05 02:29:30;;;;;;;;;;;;;;;;;;5070474;28;19916;-51
2022/07/05 02:31:56;;;;;;;;;;;;;;;;;;5050877;28;19916;-49
2022/07/05 02:34:22;;;;;;;;;;;;;;;;;;5050687;28;19908;-49
2022/07/05 02:36:48;;;;;;;;;;;;;;;;;;5050125;28;19975;-51
2022/07/05 02:39:14;;;;;;;;;;;;;;;;;;5050556;28;19909;-51
2022/07/05 02:41:39;;;;;;;;;;;;;;;;;;5050266;28;19915;-50
2022/07/05 02:44:05;;;;;;;;;;;;;;;;;;5050363;28;19913;-51
2022/07/05 02:46:31;;;;;;;;;;;;;;;;;;5049641;28;19917;-51
2022/07/05 02:48:57;;;;;;;;;;;;;;;;;;5049716;28;19923;-51
2022/07/05 02:51:23;;;;;;;;;;;;;;;;;;5050316;28;19909;-51
2022/07/05 02:53:49;;;;;;;;;;;;;;;;;;5049973;28;19912;-49
2022/07/05 02:56:15;;;;;;;;;;;;;;;;;;5050207;28;19936;-51
2022/07/05 02:58:41;;;;;;;;;;;;;;;;;;5049849;28;19912;-51
2022/07/05 03:01:07;;;;;;;;;;;;;;;;;;5064879;28;19919;-49
2022/07/05 03:03:33;;;;;;;;;;;;;;;;;;5050202;28;20356;-51
2022/07/05 03:05:59;;;;;;;;;;;;;;;;;;5049591;28;19920;-47
2022/07/05 03:08:25;;;;;;;;;;;;;;;;;;5049886;28;19924;-49
2022/07/05 03:10:51;;;;;;;;;;;;;;;;;;5049493;28;19943;-52
2022/07/05 03:13:17;;;;;;;;;;;;;;;;;;5049844;28;19909;-51
2022/07/05 03:15:43;;;;;;;;;;;;;;;;;;5049611;28;19934;-47
2022/07/05 03:18:09;;;;;;;;;;;;;;;;;;5068302;28;19912;-51
2022/07/05 03:20:35;;;;;;;;;;;;;;;;;;5069644;28;20470;-49
2022/07/05 03:23:01;;;;;;;;;;;;;;;;;;5069290;28;20002;-50
2022/07/05 03:25:27;;;;;;;;;;;;;;;;;;5069536;28;20025;-52
2022/07/05 03:27:53;;;;;;;;;;;;;;;;;;5069516;28;20007;-51
2022/07/05 03:30:19;;;;;;;;;;;;;;;;;;5058386;28;19917;-49
2022/07/05 03:32:45;;;;;;;;;;;;;;;;;;5048864;28;19913;-51
2022/07/05 03:35:11;;;;;;;;;;;;;;;;;;5049571;28;19905;-49
2022/07/05 03:37:37;;;;;;;;;;;;;;;;;;5049111;28;19967;-51
2022/07/05 03:40:03;;;;;;;;;;;;;;;;;;5049336;28;19908;-50
2022/07/05 03:42:29;;;;;;;;;;;;;;;;;;5047538;28;19909;-49
2022/07/05 03:44:55;;;;;;;;;;;;;;;;;;5047138;28;19917;-51
2022/07/05 03:47:21;;;;;;;;;;;;;;;;;;5048991;28;19913;-51
2022/07/05 03:49:47;;;;;;;;;;;;;;;;;;5048490;28;20372;-48
2022/07/05 03:52:12;;;;;;;;;;;;;;;;;;5048894;28;19916;-50
2022/07/05 03:54:38;;;;;;;;;;;;;;;;;;5048712;28;19913;-50
2022/07/05 03:57:04;;;;;;;;;;;;;;;;;;5049185;28;19911;-48
2022/07/05 03:59:30;;;;;;;;;;;;;;;;;;5054955;28;19917;-49
2022/07/05 04:01:56;;;;;;;;;;;;;;;;;;5068307;28;19999;-49
2022/07/05 04:04:22;;;;;;;;;;;;;;;;;;5068941;28;19987;-52
2022/07/05 04:06:48;;;;;;;;;;;;;;;;;;5066319;28;19909;-51
2022/07/05 04:09:14;;;;;;;;;;;;;;;;;;5068762;28;20420;-49
2022/07/05 04:11:40;;;;;;;;;;;;;;;;;;5068402;28;19913;-49
2022/07/05 04:14:06;;;;;;;;;;;;;;;;;;5068492;28;19916;-49
2022/07/05 04:16:32;;;;;;;;;;;;;;;;;;5065819;28;20304;-50
2022/07/05 04:18:58;;;;;;;;;;;;;;;;;;5048498;28;19909;-49
2022/07/05 04:21:24;;;;;;;;;;;;;;;;;;5048460;28;19944;-47
2022/07/05 04:23:50;;;;;;;;;;;;;;;;;;5047886;28;19912;-52
2022/07/05 04:26:16;;;;;;;;;;;;;;;;;;5048575;28;19923;-49
2022/07/05 04:28:42;;;;;;;;;;;;;;;;;;5048235;28;19923;-51
2022/07/05 04:31:08;;;;;;;;;;;;;;;;;;5048299;28;19923;-48
2022/07/05 04:33:33;;;;;;;;;;;;;;;;;;5048048;28;19909;-51
2022/07/05 04:35:59;;;;;;;;;;;;;;;;;;5067784;28;19916;-48
2022/07/05 04:38:25;;;;;;;;;;;;;;;;;;5068136;28;19927;-48
2022/07/05 04:40:51;;;;;;;;;;;;;;;;;;5068329;28;19908;-50
2022/07/05 04:43:17;;;;;;;;;;;;;;;;;;5068414;28;20382;-48
2022/07/05 04:45:43;;;;;;;;;;;;;;;;;;5067963;28;19913;-51
2022/07/05 04:48:09;;;;;;;;;;;;;;;;;;5067975;28;19913;-50
2022/07/05 04:50:35;;;;;;;;;;;;;;;;;;5048462;28;20142;-48
2022/07/05 04:53:01;;;;;;;;;;;;;;;;;;5047948;28;19913;-51
2022/07/05 04:55:27;;;;;;;;;;;;;;;;;;5048262;28;19950;-52
2022/07/05 04:57:54;;;;;;;;;;;;;;;;;;5048198;28;19931;-49
2022/07/05 05:00:20;;;;;;;;;;;;;;;;;;5048564;28;19955;-49
2022/07/05 05:02:46;;;;;;;;;;;;;;;;;;5047562;28;20009;-48
2022/07/05 05:05:11;;;;;;;;;;;;;;;;;;5046039;28;19940;-49
2022/07/05 05:07:39;;;;;;;;;;;;;;;;;;5053815;28;19913;-51
2022/07/05 05:10:05;;;;;;;;;;;;;;;;;;5066395;28;19909;-50
2022/07/05 05:12:30;;;;;;;;;;;;;;;;;;5066775;28;19920;-48
2022/07/05 05:14:56;;;;;;;;;;;;;;;;;;5066158;28;20371;-50
2022/07/05 05:17:22;;;;;;;;;;;;;;;;;;5066890;28;19908;-49
2022/07/05 05:19:48;;;;;;;;;;;;;;;;;;5066719;28;20318;-50
2022/07/05 05:22:14;;;;;;;;;;;;;;;;;;5058409;28;19975;-50
2022/07/05 05:24:40;;;;;;;;;;;;;;;;;;5046045;28;19949;-47
2022/07/05 05:27:07;;;;;;;;;;;;;;;;;;5046489;28;19966;-49
2022/07/05 05:29:33;;;;;;;;;;;;;;;;;;5046491;28;20113;-47
2022/07/05 05:31:59;;;;;;;;;;;;;;;;;;5046062;28;19916;-50
2022/07/05 05:34:25;;;;;;;;;;;;;;;;;;5048394;28;19935;-50
2022/07/05 05:36:51;;;;;;;;;;;;;;;;;;5069161;28;19912;-49
2022/07/05 05:39:18;;;;;;;;;;;;;;;;;;5069995;28;19920;-50
2022/07/05 05:41:44;;;;;;;;;;;;;;;;;;5069733;28;19934;-48
2022/07/05 05:44:10;;;;;;;;;;;;;;;;;;5065970;28;19920;-48
2022/07/05 05:46:37;;;;;;;;;;;;;;;;;;5069996;28;19916;-47
2022/07/05 05:49:03;;;;;;;;;;;;;;;;;;5070062;28;20042;-47
2022/07/05 05:51:29;;;;;;;;;;;;;;;;;;5061813;28;20007;-51
2022/07/05 05:53:55;;;;;;;;;;;;;;;;;;5050501;28;20050;-50
2022/07/05 05:56:20;;;;;;;;;;;;;;;;;;5056388;28;19916;-50
2022/07/05 05:58:46;;;;;;;;;;;;;;;;;;5070678;28;19920;-47
2022/07/05 06:01:13;;;;;;;;;;;;;;;;;;5068447;28;19920;-48
2022/07/05 06:03:39;;;;;;;;;;;;;;;;;;5070254;28;19909;-51
2022/07/05 06:06:04;;;;;;;;;;;;;;;;;;5070759;28;19939;-49
2022/07/05 06:08:30;;;;;;;;;;;;;;;;;;5070855;28;19923;-49
2022/07/05 06:10:56;;;;;;;;;;;;;;;;;;5070671;28;20025;-50
2022/07/05 06:13:22;;;;;;;;;;;;;;;;;;5069265;28;20420;-52
2022/07/05 06:15:48;;;;;;;;;;;;;;;;;;5050225;28;19915;-52
2022/07/05 06:18:14;;;;;;;;;;;;;;;;;;5050605;28;20321;-50
2022/07/05 06:20:40;;;;;;;;;;;;;;;;;;5051489;28;19932;-48
2022/07/05 06:23:06;;;;;;;;;;;;;;;;;;5057653;28;19917;-48
2022/07/05 06:25:32;;;;;;;;;;;;;;;;;;5070095;28;19912;-50
2022/07/05 06:27:59;;;;;;;;;;;;;;;;;;5067954;28;20010;-50
2022/07/05 06:30:25;;;;;;;;;;;;;;;;;;5070534;28;19909;-51
2022/07/05 06:32:51;;;;;;;;;;;;;;;;;;5060845;28;19927;-47
2022/07/05 06:35:17;;;;;;;;;;;;;;;;;;5058353;28;19921;-51
2022/07/05 06:37:43;;;;;;;;;;;;;;;;;;5057255;28;19909;-47
2022/07/05 06:40:09;;;;;;;;;;;;;;;;;;5068496;28;19992;-49
2022/07/05 06:42:35;;;;;;;;;;;;;;;;;;5069007;28;19931;-51
2022/07/05 06:45:00;;;;;;;;;;;;;;;;;;5058033;28;19917;-48
2022/07/05 06:47:26;;;;;;;;;;;;;;;;;;5052110;28;19917;-51
2022/07/05 06:49:52;;;;;;;;;;;;;;;;;;5050717;28;19974;-47
2022/07/05 06:52:18;;;;;;;;;;;;;;;;;;5061071;28;19920;-47
2022/07/05 06:54:44;;;;;;;;;;;;;;;;;;5055504;28;19943;-47
2022/07/05 06:57:10;;;;;;;;;;;;;;;;;;5070438;28;19912;-46
2022/07/05 06:59:36;;;;;;;;;;;;;;;;;;5068221;28;19999;-51
2022/07/05 07:02:03;;;;;;;;;;;;;;;;;;5071034;28;19947;-48
2022/07/05 07:04:28;;;;;;;;;;;;;;;;;;5070557;28;19962;-51
2022/07/05 07:06:54;;;;;;;;;;;;;;;;;;5059976;28;19917;-47
2022/07/05 07:09:22;;;;;;;;;;;;;;;;;;5050595;28;19916;-47
2022/07/05 07:11:48;;;;;;;;;;;;;;;;;;5049811;28;19954;-48
2022/07/05 07:14:14;;;;;;;;;;;;;;;;;;5067964;28;19966;-47
2022/07/05 07:16:40;;;;;;;;;;;;;;;;;;5050348;28;20265;-48
2022/07/05 07:19:06;;;;;;;;;;;;;;;;;;5050374;28;19916;-47
2022/07/05 07:21:32;;;;;;;;;;;;;;;;;;5049578;28;19916;-48
2022/07/05 07:23:58;;;;;;;;;;;;;;;;;;5067110;28;19916;-49
2022/07/05 07:26:24;;;;;;;;;;;;;;;;;;5069169;28;19908;-48
2022/07/05 07:28:50;;;;;;;;;;;;;;;;;;5068904;28;20016;-48
2022/07/05 07:31:16;;;;;;;;;;;;;;;;;;5068147;28;19939;-50
2022/07/05 07:33:42;;;;;;;;;;;;;;;;;;5068330;28;20391;-48
2022/07/05 07:36:08;;;;;;;;;;;;;;;;;;5068589;28;19909;-47
2022/07/05 07:38:34;;;;;;;;;;;;;;;;;;5069244;28;20458;-49
2022/07/05 07:41:00;;;;;;;;;;;;;;;;;;5068876;28;19916;-48
2022/07/05 07:43:27;;;;;;;;;;;;;;;;;;5068499;28;20501;-48
2022/07/05 07:45:53;;;;;;;;;;;;;;;;;;5067711;28;19908;-48
2022/07/05 07:48:20;;;;;;;;;;;;;;;;;;5068591;28;19919;-49
2022/07/05 07:50:46;;;;;;;;;;;;;;;;;;5068246;28;19912;-47
2022/07/05 07:53:12;;;;;;;;;;;;;;;;;;5058803;28;19924;-48
2022/07/05 07:55:37;;;;;;;;;;;;;;;;;;5055470;28;20460;-48
2022/07/05 07:58:03;;;;;;;;;;;;;;;;;;5059429;28;19928;-51
2022/07/05 08:00:29;;;;;;;;;;;;;;;;;;5061625;28;19921;-50
2022/07/05 08:02:55;;;;;;;;;;;;;;;;;;5058638;28;20367;-48
2022/07/05 08:05:21;;;;;;;;;;;;;;;;;;5061446;28;20316;-51
2022/07/05 08:07:47;;;;;;;;;;;;;;;;;;5060262;28;19955;-48
2022/07/05 08:10:14;;;;;;;;;;;;;;;;;;5062081;28;20245;-48
2022/07/05 08:12:40;;;;;;;;;;;;;;;;;;5057611;28;19992;-48
2022/07/05 08:15:07;;;;;;;;;;;;;;;;;;5061263;28;20019;-49
2022/07/05 08:17:33;;;;;;;;;;;;;;;;;;5061698;28;20327;-48
2022/07/05 08:22:44;;;;;;;;;;;;;;;;;;5056399;28;20341;-48
2022/07/05 08:25:13;;;;;;;;;;;;;;;;;;5061516;28;19909;-50
2022/07/05 08:27:39;;;;;;;;;;;;;;;;;;5060546;28;19966;-51
2022/07/05 08:30:06;;;;;;;;;;;;;;;;;;5061852;28;19916;-50
2022/07/05 08:32:32;;;;;;;;;;;;;;;;;;5059000;28;19916;-49
2022/07/05 08:34:58;;;;;;;;;;;;;;;;;;5060507;28;19917;-50
2022/07/05 08:37:24;;;;;;;;;;;;;;;;;;5060859;28;19922;-51
2022/07/05 08:39:50;;;;;;;;;;;;;;;;;;5060327;28;19912;-49
2022/07/05 08:42:16;;;;;;;;;;;;;;;;;;5058849;28;20445;-49
2022/07/05 08:44:42;;;;;;;;;;;;;;;;;;5058211;28;20261;-48
2022/07/05 08:47:08;;;;;;;;;;;;;;;;;;5061246;28;19921;-51
2022/07/05 08:49:34;;;;;;;;;;;;;;;;;;5061454;28;20437;-48
2022/07/05 08:52:03;;;;;;;;;;;;;;;;;;5058894;28;19948;-48
2022/07/05 08:54:28;;;;;;;;;;;;;;;;;;5060670;28;19916;-49
2022/07/05 08:56:54;;;;;;;;;;;;;;;;;;5056388;28;19920;-49
2022/07/05 08:59:21;;;;;;;;;;;;;;;;;;5060988;28;19916;-49
2022/07/05 09:01:47;;;;;;;;;;;;;;;;;;5059669;28;20003;-49
2022/07/05 09:04:13;;;;;;;;;;;;;;;;;;5059054;28;19958;-47
2022/07/05 09:06:39;;;;;;;;;;;;;;;;;;5061082;28;19909;-50
2022/07/05 09:09:05;;;;;;;;;;;;;;;;;;5063379;28;19968;-48
2022/07/05 09:11:31;;;;;;;;;;;;;;;;;;5065598;28;19994;-50
2022/07/05 09:13:56;;;;;;;;;;;;;;;;;;5061120;28;20146;-51
2022/07/05 09:16:22;;;;;;;;;;;;;;;;;;5064321;28;20489;-52
2022/07/05 09:18:48;;;;;;;;;;;;;;;;;;5064462;28;19916;-50
2022/07/05 09:21:15;;;;;;;;;;;;;;;;;;5063911;28;19956;-47
2022/07/05 09:23:42;;;;;;;;;;;;;;;;;;5059985;28;19917;-52
2022/07/05 09:26:08;;;;;;;;;;;;;;;;;;5064781;28;19916;-47
2022/07/05 09:28:33;;;;;;;;;;;;;;;;;;5064986;28;19917;-52
2022/07/05 09:30:59;;;;;;;;;;;;;;;;;;5064918;28;20128;-51
2022/07/05 09:33:25;;;;;;;;;;;;;;;;;;5069376;28;19916;-50
2022/07/05 09:35:54;;;;;;;;;;;;;;;;;;5070957;28;19913;-51
2022/07/05 09:38:21;;;;;;;;;;;;;;;;;;5071045;28;19909;-50
2022/07/05 09:40:47;;;;;;;;;;;;;;;;;;5070886;28;19909;-52
2022/07/05 09:43:14;;;;;;;;;;;;;;;;;;5070845;28;20414;-48
2022/07/05 09:45:40;;;;;;;;;;;;;;;;;;5067225;28;19920;-48
2022/07/05 09:48:07;;;;;;;;;;;;;;;;;;5064921;28;19924;-50
2022/07/05 09:50:33;;;;;;;;;;;;;;;;;;5071499;28;19912;-49
2022/07/05 09:52:59;;;;;;;;;;;;;;;;;;5060777;28;20478;-48
2022/07/05 09:55:25;;;;;;;;;;;;;;;;;;5049438;28;19924;-47
2022/07/05 09:57:51;;;;;;;;;;;;;;;;;;5048866;28;20410;-48
2022/07/05 10:00:17;;;;;;;;;;;;;;;;;;5050996;28;20022;-49
2022/07/05 10:02:43;;;;;;;;;;;;;;;;;;5050799;28;20299;-48
2022/07/05 10:05:09;;;;;;;;;;;;;;;;;;5054765;28;19920;-49
2022/07/05 10:07:36;;;;;;;;;;;;;;;;;;5069290;28;20325;-48
2022/07/05 10:10:02;;;;;;;;;;;;;;;;;;5070868;28;20433;-51
2022/07/05 10:12:28;;;;;;;;;;;;;;;;;;5070289;28;20268;-47
2022/07/05 10:14:54;;;;;;;;;;;;;;;;;;5070374;28;19944;-49
2022/07/05 10:17:21;;;;;;;;;;;;;;;;;;5051890;28;19913;-47
2022/07/05 10:19:46;;;;;;;;;;;;;;;;;;5048972;28;19913;-48
2022/07/05 10:22:12;;;;;;;;;;;;;;;;;;5050408;28;19955;-48
2022/07/05 10:24:38;;;;;;;;;;;;;;;;;;5049697;28;19967;-49
2022/07/05 10:27:05;;;;;;;;;;;;;;;;;;5050673;28;20300;-49
2022/07/05 10:29:31;;;;;;;;;;;;;;;;;;5050118;28;19917;-49
2022/07/05 10:31:57;;;;;;;;;;;;;;;;;;5049954;28;20302;-48
2022/07/05 10:34:24;;;;;;;;;;;;;;;;;;5051084;28;19970;-49
2022/07/05 10:36:50;;;;;;;;;;;;;;;;;;5069548;28;19915;-50
2022/07/05 10:39:17;;;;;;;;;;;;;;;;;;5062827;28;19917;-47
2022/07/05 10:41:43;;;;;;;;;;;;;;;;;;5072210;28;20294;-48
2022/07/05 10:44:09;;;;;;;;;;;;;;;;;;5063610;28;19916;-51
2022/07/05 10:46:35;;;;;;;;;;;;;;;;;;5054193;28;20298;-49
2022/07/05 10:49:00;;;;;;;;;;;;;;;;;;5049331;28;19982;-51
2022/07/05 10:51:27;;;;;;;;;;;;;;;;;;5049996;28;19920;-49
2022/07/05 10:53:54;;;;;;;;;;;;;;;;;;5049554;28;19949;-47
2022/07/05 10:56:20;;;;;;;;;;;;;;;;;;5049884;28;20290;-50
2022/07/05 10:58:46;;;;;;;;;;;;;;;;;;5058378;28;19916;-49
2022/07/05 11:01:13;;;;;;;;;;;;;;;;;;5049758;28;19908;-48
2022/07/05 11:03:39;;;;;;;;;;;;;;;;;;5049250;28;19923;-52
2022/07/05 11:06:05;;;;;;;;;;;;;;;;;;5050000;28;19917;-48
2022/07/05 11:08:33;;;;;;;;;;;;;;;;;;5049408;28;19964;-48
2022/07/05 11:10:59;;;;;;;;;;;;;;;;;;5049389;28;19931;-50
2022/07/05 11:13:25;;;;;;;;;;;;;;;;;;5064899;28;20570;-50
2022/07/05 11:15:51;;;;;;;;;;;;;;;;;;5056879;28;19939;-52
2022/07/05 11:18:17;;;;;;;;;;;;;;;;;;5049531;28;19955;-51
2022/07/05 11:20:43;;;;;;;;;;;;;;;;;;5049147;28;19909;-51
2022/07/05 11:23:09;;;;;;;;;;;;;;;;;;5049058;28;19913;-51
2022/07/05 11:25:35;;;;;;;;;;;;;;;;;;5049480;28;19948;-50
2022/07/05 11:28:02;;;;;;;;;;;;;;;;;;5065541;28;20010;-47
2022/07/05 11:30:28;;;;;;;;;;;;;;;;;;5069008;28;19953;-51
2022/07/05 11:32:53;;;;;;;;;;;;;;;;;;5056589;28;19917;-51
2022/07/05 11:35:20;;;;;;;;;;;;;;;;;;5049246;28;20399;-52
2022/07/05 11:37:47;;;;;;;;;;;;;;;;;;5048476;28;20007;-50
2022/07/05 11:40:14;;;;;;;;;;;;;;;;;;5049153;28;19965;-50
2022/07/05 11:42:42;;;;;;;;;;;;;;;;;;5057624;28;20007;-48
2022/07/05 11:45:09;;;;;;;;;;;;;;;;;;5063612;28;19995;-51
2022/07/05 11:47:36;;;;;;;;;;;;;;;;;;5068448;28;20400;-47
2022/07/05 11:50:01;;;;;;;;;;;;;;;;;;5068738;28;19978;-48
2022/07/05 11:52:27;;;;;;;;;;;;;;;;;;5068688;28;19954;-52
2022/07/05 11:54:53;;;;;;;;;;;;;;;;;;5063115;28;20837;-52
2022/07/05 11:57:19;;;;;;;;;;;;;;;;;;5046764;28;20441;-50
2022/07/05 11:59:46;;;;;;;;;;;;;;;;;;5051859;28;19978;-51
2022/07/05 12:02:12;;;;;;;;;;;;;;;;;;5060286;28;20384;-50
2022/07/05 12:04:38;;;;;;;;;;;;;;;;;;5067882;28;19930;-50
2022/07/05 12:07:04;;;;;;;;;;;;;;;;;;5059143;28;19916;-49
2022/07/05 12:12:42;;;;;;;;;;;;;;;;;;5064932;28;21325;-53
2022/07/05 12:15:02;;;;;;;;;;;;;;;;;;5066562;28;19920;-50
2022/07/05 12:17:29;;;;;;;;;;;;;;;;;;5067002;28;19916;-50
2022/07/05 12:19:55;;;;;;;;;;;;;;;;;;5067989;28;19913;-49
2022/07/05 12:22:21;;;;;;;;;;;;;;;;;;5066745;28;19919;-52
2022/07/05 12:24:47;;;;;;;;;;;;;;;;;;5067931;28;19944;-52
2022/07/05 12:27:13;;;;;;;;;;;;;;;;;;5067837;28;19909;-49
2022/07/05 12:29:40;;;;;;;;;;;;;;;;;;5066109;28;21173;-50
2022/07/05 12:32:08;;;;;;;;;;;;;;;;;;5055114;28;19916;-51
2022/07/05 12:34:34;;;;;;;;;;;;;;;;;;5067862;28;20411;-47
2022/07/05 12:37:00;;;;;;;;;;;;;;;;;;5067251;28;19967;-51
2022/07/05 12:39:26;;;;;;;;;;;;;;;;;;5067168;28;19908;-49
2022/07/05 12:41:52;;;;;;;;;;;;;;;;;;5054644;28;20110;-51
2022/07/05 12:44:18;;;;;;;;;;;;;;;;;;5051488;28;20410;-48
2022/07/05 12:46:45;;;;;;;;;;;;;;;;;;5068116;28;19927;-50
2022/07/05 12:49:11;;;;;;;;;;;;;;;;;;5061499;28;20019;-50
2022/07/05 12:51:38;;;;;;;;;;;;;;;;;;5049997;28;20479;-49
2022/07/05 12:59:34;;;;;;;;;;;;;;;;;;5056678;28;19959;-48
2022/07/05 13:02:00;;;;;;;;;;;;;;;;;;5047191;28;19967;-48
2022/07/05 13:04:26;;;;;;;;;;;;;;;;;;5058502;28;19966;-49
2022/07/05 13:06:53;;;;;;;;;;;;;;;;;;5062659;28;19917;-49
2022/07/05 13:09:19;;;;;;;;;;;;;;;;;;5064321;28;20426;-50
2022/07/05 13:11:45;;;;;;;;;;;;;;;;;;5048278;28;19932;-49
2022/07/05 13:14:12;;;;;;;;;;;;;;;;;;5061677;28;19928;-50
2022/07/05 13:16:37;;;;;;;;;;;;;;;;;;5053063;28;20308;-48
2022/07/05 13:19:03;;;;;;;;;;;;;;;;;;5045737;28;19913;-48
2022/07/05 13:21:29;;;;;;;;;;;;;;;;;;5047072;28;20003;-51
2022/07/05 13:23:55;;;;;;;;;;;;;;;;;;5056992;28;19921;-49
2022/07/05 13:26:22;;;;;;;;;;;;;;;;;;5059352;28;19916;-47
2022/07/05 13:28:49;;;;;;;;;;;;;;;;;;5049795;28;20300;-48
2022/07/05 13:31:15;;;;;;;;;;;;;;;;;;5058737;28;19963;-48
2022/07/05 13:33:41;;;;;;;;;;;;;;;;;;5051830;28;19971;-48
2022/07/05 13:36:07;;;;;;;;;;;;;;;;;;5050744;28;19961;-48
2022/07/05 13:38:33;;;;;;;;;;;;;;;;;;5058125;28;19908;-48
2022/07/05 13:40:58;;;;;;;;;;;;;;;;;;5067100;28;19909;-48
2022/07/05 13:43:24;;;;;;;;;;;;;;;;;;5050502;28;19920;-48
2022/07/05 13:45:50;;;;;;;;;;;;;;;;;;5047084;28;19952;-48
2022/07/05 13:48:17;;;;;;;;;;;;;;;;;;5063074;28;19951;-50
2022/07/05 13:50:43;;;;;;;;;;;;;;;;;;5047196;28;19908;-48
2022/07/05 13:53:09;;;;;;;;;;;;;;;;;;5047698;28;19916;-50
2022/07/05 13:55:35;;;;;;;;;;;;;;;;;;5053245;28;19920;-49
2022/07/05 13:58:01;;;;;;;;;;;;;;;;;;5051598;28;19913;-49
2022/07/05 14:00:27;;;;;;;;;;;;;;;;;;5068410;28;19916;-48
2022/07/05 14:02:53;;;;;;;;;;;;;;;;;;5055646;28;20427;-47
2022/07/05 14:05:20;;;;;;;;;;;;;;;;;;5054011;28;20406;-51
2022/07/05 14:07:46;;;;;;;;;;;;;;;;;;5066460;28;20387;-50
2022/07/05 14:10:12;;;;;;;;;;;;;;;;;;5070754;28;19928;-49
2022/07/05 14:12:38;;;;;;;;;;;;;;;;;;5071482;28;19940;-48
2022/07/05 14:15:04;;;;;;;;;;;;;;;;;;5056604;28;19913;-47
2022/07/05 14:17:30;;;;;;;;;;;;;;;;;;5073146;28;19922;-49
2022/07/05 14:19:56;;;;;;;;;;;;;;;;;;5074063;28;19936;-49
2022/07/05 14:22:22;;;;;;;;;;;;;;;;;;5051691;28;19950;-51
2022/07/05 14:24:48;;;;;;;;;;;;;;;;;;5051209;28;19940;-50
2022/07/05 14:27:14;;;;;;;;;;;;;;;;;;5051654;28;19909;-51
2022/07/05 14:29:40;;;;;;;;;;;;;;;;;;5051125;28;19999;-48
2022/07/05 14:32:06;;;;;;;;;;;;;;;;;;5051484;28;19917;-49
2022/07/05 14:34:32;;;;;;;;;;;;;;;;;;5064773;28;19913;-48
2022/07/05 14:36:59;;;;;;;;;;;;;;;;;;5070909;28;20078;-50
2022/07/05 14:39:24;;;;;;;;;;;;;;;;;;5070802;28;20009;-51
2022/07/05 14:41:50;;;;;;;;;;;;;;;;;;5051298;28;20033;-51
2022/07/05 14:44:17;;;;;;;;;;;;;;;;;;5050604;28;19908;-51
2022/07/05 14:46:43;;;;;;;;;;;;;;;;;;5052345;28;20048;-51
2022/07/05 14:49:09;;;;;;;;;;;;;;;;;;5050691;28;20505;-51
2022/07/05 14:51:34;;;;;;;;;;;;;;;;;;5051936;28;19919;-48
2022/07/05 14:54:00;;;;;;;;;;;;;;;;;;5070421;28;19916;-48
2022/07/05 14:56:26;;;;;;;;;;;;;;;;;;5070602;28;19915;-48
2022/07/05 14:58:52;;;;;;;;;;;;;;;;;;5070397;28;19938;-50
2022/07/05 15:01:18;;;;;;;;;;;;;;;;;;5056958;28;19913;-51
2022/07/05 15:03:44;;;;;;;;;;;;;;;;;;5053272;28;19939;-52
2022/07/05 15:06:10;;;;;;;;;;;;;;;;;;5049900;28;19920;-50
2022/07/05 15:08:36;;;;;;;;;;;;;;;;;;5082496;28;19923;-50
2022/07/05 15:11:02;;;;;;;;;;;;;;;;;;5091032;28;20026;-51
2022/07/05 15:13:28;;;;;;;;;;;;;;;;;;5090653;28;19957;-49
2022/07/05 15:15:56;;;;;;;;;;;;;;;;;;5084600;28;19927;-50
2022/07/05 15:18:22;;;;;;;;;;;;;;;;;;5074285;28;19969;-51
2022/07/05 15:20:48;;;;;;;;;;;;;;;;;;5069499;28;19912;-51
2022/07/05 15:23:14;;;;;;;;;;;;;;;;;;5050231;28;19909;-49
2022/07/05 15:25:40;;;;;;;;;;;;;;;;;;5049744;28;19909;-49
2022/07/05 15:28:09;;;;;;;;;;;;;;;;;;5049674;28;19917;-49
2022/07/05 15:30:35;;;;;;;;;;;;;;;;;;5058314;28;19960;-49
2022/07/05 15:33:02;;;;;;;;;;;;;;;;;;5063990;28;19974;-51
2022/07/05 15:35:29;;;;;;;;;;;;;;;;;;5056750;28;19913;-51
2022/07/05 15:37:55;;;;;;;;;;;;;;;;;;5062417;28;19916;-49
2022/07/05 15:40:21;;;;;;;;;;;;;;;;;;5076067;28;20453;-49
2022/07/05 15:42:47;;;;;;;;;;;;;;;;;;5069031;28;19920;-49
2022/07/05 15:45:13;;;;;;;;;;;;;;;;;;5069844;28;19913;-51
2022/07/05 15:47:39;;;;;;;;;;;;;;;;;;5069386;28;19917;-52
2022/07/05 15:50:05;;;;;;;;;;;;;;;;;;5070011;28;19913;-51
2022/07/05 15:52:31;;;;;;;;;;;;;;;;;;5069911;28;19935;-48
2022/07/05 15:54:57;;;;;;;;;;;;;;;;;;5072400;28;19932;-49
2022/07/05 15:57:25;;;;;;;;;;;;;;;;;;5076354;28;19923;-48
2022/07/05 15:59:52;;;;;;;;;;;;;;;;;;5068380;28;19917;-51
2022/07/05 16:02:17;;;;;;;;;;;;;;;;;;5068558;28;20442;-52
2022/07/05 16:04:43;;;;;;;;;;;;;;;;;;5068066;28;20031;-51
2022/07/05 16:07:10;;;;;;;;;;;;;;;;;;5068864;28;19936;-49
2022/07/05 16:09:36;;;;;;;;;;;;;;;;;;5068828;28;19927;-51
2022/07/05 16:12:02;;;;;;;;;;;;;;;;;;5067811;28;19917;-51
2022/07/05 16:14:28;;;;;;;;;;;;;;;;;;5068498;28;19908;-49
2022/07/05 16:16:54;;;;;;;;;;;;;;;;;;5069337;28;20001;-52
2022/07/05 16:19:20;;;;;;;;;;;;;;;;;;5068462;28;19985;-50
2022/07/05 16:21:49;;;;;;;;;;;;;;;;;;5059042;28;20338;-52
2022/07/05 16:24:15;;;;;;;;;;;;;;;;;;5048289;28;20296;-52
2022/07/05 16:26:41;;;;;;;;;;;;;;;;;;5057017;28;19924;-52
2022/07/05 16:29:07;;;;;;;;;;;;;;;;;;5068521;28;19916;-49
2022/07/05 16:31:33;;;;;;;;;;;;;;;;;;5063151;28;19923;-50
2022/07/05 16:33:59;;;;;;;;;;;;;;;;;;5059559;28;20403;-49
2022/07/05 16:36:25;;;;;;;;;;;;;;;;;;5047767;28;19946;-52
2022/07/05 16:38:51;;;;;;;;;;;;;;;;;;5052002;28;19917;-50
2022/07/05 16:41:17;;;;;;;;;;;;;;;;;;5055750;28;19954;-49
2022/07/05 16:43:43;;;;;;;;;;;;;;;;;;5060203;28;19920;-51
2022/07/05 16:46:09;;;;;;;;;;;;;;;;;;5047969;28;19970;-48
2022/07/05 16:48:38;;;;;;;;;;;;;;;;;;5048895;28;19921;-51